sensor_id;sensor_type;location;lat;lon;timestamp;noise_LAeq;noise_LA_min;noise_LA_max;noise_LA01;noise_LA95
67308;Laerm;57662;51.436;5.978;2023-06-05T00:00:05;41.05;33.67;57.88;;
67308;Laerm;57662;51.436;5.978;2023-06-05T00:00:17;43.54;33.40;58.30;;
67308;Laerm;57662;51.436;5.978;2023-06-05T00:00:27;34.86;33.71;35.97;;
67308;Laerm;57662;51.436;5.978;2023-06-05T00:00:38;34.79;33.49;36.02;;
67308;Laerm;57662;51.436;5.978;2023-06-05T00:00:48;35.00;33.92;36.17;;
67308;Laerm;57662;51.436;5.978;2023-06-05T00:00:58;35.03;33.75;36.70;;
67308;Laerm;57662;51.436;5.978;2023-06-05T00:01:10;35.05;33.88;36.94;;
67308;Laerm;57662;51.436;5.978;2023-06-05T00:01:20;34.65;33.32;36.88;;
67308;Laerm;57662;51.436;5.978;2023-06-05T00:01:31;34.55;33.30;35.60;;
67308;Laerm;57662;51.436;5.978;2023-06-05T00:01:44;34.69;33.53;36.03;;
67308;Laerm;57662;51.436;5.978;2023-06-05T00:01:54;34.90;33.55;36.02;;
67308;Laerm;57662;51.436;5.978;2023-06-05T00:02:05;34.78;33.45;36.47;;
67308;Laerm;57662;51.436;5.978;2023-06-05T00:02:15;35.20;34.21;41.64;;
67308;Laerm;57662;51.436;5.978;2023-06-05T00:02:26;35.23;34.05;36.33;;
67308;Laerm;57662;51.436;5.978;2023-06-05T00:02:39;35.61;34.14;36.80;;
67308;Laerm;57662;51.436;5.978;2023-06-05T00:02:49;35.37;34.33;36.22;;
67308;Laerm;57662;51.436;5.978;2023-06-05T00:02:59;35.05;33.90;36.57;;
67308;Laerm;57662;51.436;5.978;2023-06-05T00:03:10;35.13;33.71;36.46;;
67308;Laerm;57662;51.436;5.978;2023-06-05T00:03:20;35.05;33.45;36.17;;
67308;Laerm;57662;51.436;5.978;2023-06-05T00:03:30;34.85;33.71;35.97;;
67308;Laerm;57662;51.436;5.978;2023-06-05T00:03:40;35.45;33.52;42.29;;
67308;Laerm;57662;51.436;5.978;2023-06-05T00:03:53;35.27;33.40;41.82;;
67308;Laerm;57662;51.436;5.978;2023-06-05T00:04:04;35.06;33.76;36.71;;
67308;Laerm;57662;51.436;5.978;2023-06-05T00:04:14;34.82;33.59;36.21;;
67308;Laerm;57662;51.436;5.978;2023-06-05T00:04:24;34.90;33.95;36.33;;
67308;Laerm;57662;51.436;5.978;2023-06-05T00:04:35;34.72;33.26;35.85;;
67308;Laerm;57662;51.436;5.978;2023-06-05T00:04:46;34.83;33.75;36.83;;
67308;Laerm;57662;51.436;5.978;2023-06-05T00:04:56;34.64;33.35;36.03;;
67308;Laerm;57662;51.436;5.978;2023-06-05T00:05:07;34.70;33.51;35.84;;
67308;Laerm;57662;51.436;5.978;2023-06-05T00:05:20;34.71;33.33;35.84;;
67308;Laerm;57662;51.436;5.978;2023-06-05T00:05:30;34.64;33.37;36.06;;
67308;Laerm;57662;51.436;5.978;2023-06-05T00:05:41;34.41;32.99;35.36;;
67308;Laerm;57662;51.436;5.978;2023-06-05T00:05:51;34.85;33.70;36.67;;
67308;Laerm;57662;51.436;5.978;2023-06-05T00:06:01;34.96;33.61;37.98;;
67308;Laerm;57662;51.436;5.978;2023-06-05T00:06:12;34.68;33.70;35.79;;
67308;Laerm;57662;51.436;5.978;2023-06-05T00:06:22;34.76;33.51;36.07;;
67308;Laerm;57662;51.436;5.978;2023-06-05T00:06:32;35.56;33.54;42.87;;
67308;Laerm;57662;51.436;5.978;2023-06-05T00:06:43;34.78;33.83;36.37;;
67308;Laerm;57662;51.436;5.978;2023-06-05T00:06:54;34.91;33.83;36.00;;
67308;Laerm;57662;51.436;5.978;2023-06-05T00:07:05;34.94;34.03;36.33;;
67308;Laerm;57662;51.436;5.978;2023-06-05T00:07:15;35.41;34.22;36.57;;
67308;Laerm;57662;51.436;5.978;2023-06-05T00:07:26;35.27;33.97;36.42;;
67308;Laerm;57662;51.436;5.978;2023-06-05T00:07:36;35.26;34.10;36.39;;
67308;Laerm;57662;51.436;5.978;2023-06-05T00:07:49;35.16;34.05;36.48;;
67308;Laerm;57662;51.436;5.978;2023-06-05T00:08:00;35.27;33.63;36.49;;
67308;Laerm;57662;51.436;5.978;2023-06-05T00:08:10;35.54;34.13;36.57;;
67308;Laerm;57662;51.436;5.978;2023-06-05T00:08:20;35.44;34.21;36.59;;
67308;Laerm;57662;51.436;5.978;2023-06-05T00:08:30;35.31;34.13;36.47;;
67308;Laerm;57662;51.436;5.978;2023-06-05T00:08:41;35.13;33.72;36.41;;
67308;Laerm;57662;51.436;5.978;2023-06-05T00:08:51;34.64;33.68;35.66;;
67308;Laerm;57662;51.436;5.978;2023-06-05T00:09:02;34.80;33.54;35.87;;
67308;Laerm;57662;51.436;5.978;2023-06-05T00:09:12;35.44;33.89;36.70;;
67308;Laerm;57662;51.436;5.978;2023-06-05T00:09:23;35.88;34.79;36.92;;
67308;Laerm;57662;51.436;5.978;2023-06-05T00:09:34;35.63;34.49;37.09;;
67308;Laerm;57662;51.436;5.978;2023-06-05T00:09:45;35.19;33.84;37.00;;
67308;Laerm;57662;51.436;5.978;2023-06-05T00:09:55;34.87;33.65;36.00;;
67308;Laerm;57662;51.436;5.978;2023-06-05T00:10:06;34.72;33.72;35.84;;
67308;Laerm;57662;51.436;5.978;2023-06-05T00:10:16;34.59;33.47;35.71;;
67308;Laerm;57662;51.436;5.978;2023-06-05T00:10:26;35.08;33.75;42.22;;
67308;Laerm;57662;51.436;5.978;2023-06-05T00:10:37;34.94;33.82;36.45;;
67308;Laerm;57662;51.436;5.978;2023-06-05T00:10:48;34.71;33.40;35.95;;
67308;Laerm;57662;51.436;5.978;2023-06-05T00:10:58;34.81;33.48;37.63;;
67308;Laerm;57662;51.436;5.978;2023-06-05T00:11:08;35.08;33.72;36.45;;
67308;Laerm;57662;51.436;5.978;2023-06-05T00:11:19;34.53;32.95;37.29;;
67308;Laerm;57662;51.436;5.978;2023-06-05T00:11:29;34.79;33.68;35.99;;
67308;Laerm;57662;51.436;5.978;2023-06-05T00:11:39;35.10;34.01;36.14;;
67308;Laerm;57662;51.436;5.978;2023-06-05T00:11:51;35.05;33.93;36.14;;
67308;Laerm;57662;51.436;5.978;2023-06-05T00:12:01;34.88;33.52;36.30;;
67308;Laerm;57662;51.436;5.978;2023-06-05T00:12:11;34.69;33.57;35.63;;
67308;Laerm;57662;51.436;5.978;2023-06-05T00:12:22;34.59;33.42;35.54;;
67308;Laerm;57662;51.436;5.978;2023-06-05T00:12:32;34.60;33.02;35.85;;
67308;Laerm;57662;51.436;5.978;2023-06-05T00:12:43;34.43;33.51;35.54;;
67308;Laerm;57662;51.436;5.978;2023-06-05T00:12:54;34.70;33.55;36.40;;
67308;Laerm;57662;51.436;5.978;2023-06-05T00:13:04;34.67;33.61;36.06;;
67308;Laerm;57662;51.436;5.978;2023-06-05T00:13:15;34.78;33.54;37.07;;
67308;Laerm;57662;51.436;5.978;2023-06-05T00:13:26;35.34;33.85;37.75;;
67308;Laerm;57662;51.436;5.978;2023-06-05T00:13:36;34.50;33.31;35.85;;
67308;Laerm;57662;51.436;5.978;2023-06-05T00:13:47;34.99;32.97;36.15;;
67308;Laerm;57662;51.436;5.978;2023-06-05T00:13:57;35.68;34.48;36.85;;
67308;Laerm;57662;51.436;5.978;2023-06-05T00:14:08;35.25;34.06;36.84;;
67308;Laerm;57662;51.436;5.978;2023-06-05T00:14:19;35.13;33.75;36.43;;
67308;Laerm;57662;51.436;5.978;2023-06-05T00:14:29;35.07;33.62;37.50;;
67308;Laerm;57662;51.436;5.978;2023-06-05T00:14:42;34.82;33.67;36.04;;
67308;Laerm;57662;51.436;5.978;2023-06-05T00:14:52;34.98;33.81;35.99;;
67308;Laerm;57662;51.436;5.978;2023-06-05T00:15:03;35.11;34.14;36.38;;
67308;Laerm;57662;51.436;5.978;2023-06-05T00:15:14;34.70;33.52;35.82;;
67308;Laerm;57662;51.436;5.978;2023-06-05T00:15:25;34.92;33.67;43.10;;
67308;Laerm;57662;51.436;5.978;2023-06-05T00:15:35;34.66;33.46;35.67;;
67308;Laerm;57662;51.436;5.978;2023-06-05T00:15:47;34.86;33.56;35.97;;
67308;Laerm;57662;51.436;5.978;2023-06-05T00:15:58;35.01;34.03;36.37;;
67308;Laerm;57662;51.436;5.978;2023-06-05T00:16:08;34.95;33.79;35.84;;
67308;Laerm;57662;51.436;5.978;2023-06-05T00:16:18;34.59;33.40;35.69;;
67308;Laerm;57662;51.436;5.978;2023-06-05T00:16:29;34.97;33.85;36.32;;
67308;Laerm;57662;51.436;5.978;2023-06-05T00:16:39;35.04;33.63;36.75;;
67308;Laerm;57662;51.436;5.978;2023-06-05T00:16:49;35.13;33.68;36.56;;
67308;Laerm;57662;51.436;5.978;2023-06-05T00:17:01;35.36;34.11;36.63;;
67308;Laerm;57662;51.436;5.978;2023-06-05T00:17:12;35.20;34.16;36.71;;
67308;Laerm;57662;51.436;5.978;2023-06-05T00:17:22;35.21;33.96;36.71;;
67308;Laerm;57662;51.436;5.978;2023-06-05T00:17:34;35.01;33.94;36.34;;
67308;Laerm;57662;51.436;5.978;2023-06-05T00:17:44;35.48;34.05;36.67;;
67308;Laerm;57662;51.436;5.978;2023-06-05T00:17:55;35.84;34.60;37.01;;
67308;Laerm;57662;51.436;5.978;2023-06-05T00:18:06;35.70;34.60;36.94;;
67308;Laerm;57662;51.436;5.978;2023-06-05T00:18:16;35.40;34.31;36.86;;
67308;Laerm;57662;51.436;5.978;2023-06-05T00:18:27;34.99;33.85;36.13;;
67308;Laerm;57662;51.436;5.978;2023-06-05T00:18:37;35.49;33.75;45.50;;
67308;Laerm;57662;51.436;5.978;2023-06-05T00:18:48;35.14;34.00;40.13;;
67308;Laerm;57662;51.436;5.978;2023-06-05T00:18:58;35.14;33.87;39.22;;
67308;Laerm;57662;51.436;5.978;2023-06-05T00:19:09;34.98;33.58;36.83;;
67308;Laerm;57662;51.436;5.978;2023-06-05T00:19:20;37.13;34.01;46.90;;
67308;Laerm;57662;51.436;5.978;2023-06-05T00:19:30;35.91;34.11;40.56;;
67308;Laerm;57662;51.436;5.978;2023-06-05T00:19:41;35.35;34.23;36.61;;
67308;Laerm;57662;51.436;5.978;2023-06-05T00:19:51;35.43;34.38;36.88;;
67308;Laerm;57662;51.436;5.978;2023-06-05T00:20:02;34.99;33.66;36.06;;
67308;Laerm;57662;51.436;5.978;2023-06-05T00:20:13;35.15;33.88;36.46;;
67308;Laerm;57662;51.436;5.978;2023-06-05T00:20:23;35.40;34.15;36.58;;
67308;Laerm;57662;51.436;5.978;2023-06-05T00:20:33;35.58;34.34;38.54;;
67308;Laerm;57662;51.436;5.978;2023-06-05T00:20:44;34.86;33.75;37.61;;
67308;Laerm;57662;51.436;5.978;2023-06-05T00:20:54;34.56;33.43;35.56;;
67308;Laerm;57662;51.436;5.978;2023-06-05T00:21:04;34.85;33.74;36.01;;
67308;Laerm;57662;51.436;5.978;2023-06-05T00:21:14;34.88;33.70;36.16;;
67308;Laerm;57662;51.436;5.978;2023-06-05T00:21:29;34.74;33.41;35.95;;
67308;Laerm;57662;51.436;5.978;2023-06-05T00:21:40;34.62;33.05;35.60;;
67308;Laerm;57662;51.436;5.978;2023-06-05T00:21:50;34.64;33.50;35.56;;
67308;Laerm;57662;51.436;5.978;2023-06-05T00:22:02;34.53;33.27;36.35;;
67308;Laerm;57662;51.436;5.978;2023-06-05T00:22:13;34.65;33.43;35.92;;
67308;Laerm;57662;51.436;5.978;2023-06-05T00:22:26;34.86;33.51;35.95;;
67308;Laerm;57662;51.436;5.978;2023-06-05T00:22:41;34.95;33.54;36.40;;
67308;Laerm;57662;51.436;5.978;2023-06-05T00:22:54;34.95;33.98;36.27;;
67308;Laerm;57662;51.436;5.978;2023-06-05T00:23:05;35.09;33.78;36.59;;
67308;Laerm;57662;51.436;5.978;2023-06-05T00:23:15;35.27;34.10;36.83;;
67308;Laerm;57662;51.436;5.978;2023-06-05T00:23:26;35.23;33.73;36.28;;
67308;Laerm;57662;51.436;5.978;2023-06-05T00:23:36;35.10;34.00;36.42;;
67308;Laerm;57662;51.436;5.978;2023-06-05T00:23:46;34.96;33.60;36.89;;
67308;Laerm;57662;51.436;5.978;2023-06-05T00:23:56;34.96;33.83;37.38;;
67308;Laerm;57662;51.436;5.978;2023-06-05T00:24:07;34.92;33.64;36.32;;
67308;Laerm;57662;51.436;5.978;2023-06-05T00:24:17;34.81;33.66;37.27;;
67308;Laerm;57662;51.436;5.978;2023-06-05T00:24:27;34.55;33.42;36.01;;
67308;Laerm;57662;51.436;5.978;2023-06-05T00:24:38;35.26;34.05;36.96;;
67308;Laerm;57662;51.436;5.978;2023-06-05T00:24:49;35.10;33.89;36.33;;
67308;Laerm;57662;51.436;5.978;2023-06-05T00:25:00;35.23;33.99;36.49;;
67308;Laerm;57662;51.436;5.978;2023-06-05T00:25:10;35.00;33.99;36.85;;
67308;Laerm;57662;51.436;5.978;2023-06-05T00:25:21;35.55;34.11;41.22;;
67308;Laerm;57662;51.436;5.978;2023-06-05T00:25:32;36.31;34.97;39.78;;
67308;Laerm;57662;51.436;5.978;2023-06-05T00:25:42;36.41;34.62;45.36;;
67308;Laerm;57662;51.436;5.978;2023-06-05T00:25:53;35.05;34.05;36.45;;
67308;Laerm;57662;51.436;5.978;2023-06-05T00:26:03;35.91;33.93;43.63;;
67308;Laerm;57662;51.436;5.978;2023-06-05T00:26:14;34.85;33.68;36.08;;
67308;Laerm;57662;51.436;5.978;2023-06-05T00:26:24;37.22;34.11;52.05;;
67308;Laerm;57662;51.436;5.978;2023-06-05T00:26:35;36.97;33.90;48.03;;
67308;Laerm;57662;51.436;5.978;2023-06-05T00:26:45;37.70;34.29;49.48;;
67308;Laerm;57662;51.436;5.978;2023-06-05T00:26:57;38.38;33.71;53.08;;
67308;Laerm;57662;51.436;5.978;2023-06-05T00:27:08;37.28;33.88;49.47;;
67308;Laerm;57662;51.436;5.978;2023-06-05T00:27:18;36.06;33.26;47.31;;
67308;Laerm;57662;51.436;5.978;2023-06-05T00:27:29;35.24;33.92;40.61;;
67308;Laerm;57662;51.436;5.978;2023-06-05T00:27:40;35.80;34.32;41.72;;
67308;Laerm;57662;51.436;5.978;2023-06-05T00:27:51;38.48;34.22;52.52;;
67308;Laerm;57662;51.436;5.978;2023-06-05T00:28:02;44.41;33.95;63.42;;
67308;Laerm;57662;51.436;5.978;2023-06-05T00:28:12;39.96;34.52;56.14;;
67308;Laerm;57662;51.436;5.978;2023-06-05T00:28:23;35.28;33.71;43.68;;
67308;Laerm;57662;51.436;5.978;2023-06-05T00:28:34;36.36;34.09;47.06;;
67308;Laerm;57662;51.436;5.978;2023-06-05T00:28:45;35.96;34.59;37.34;;
67308;Laerm;57662;51.436;5.978;2023-06-05T00:28:56;35.55;34.27;39.71;;
67308;Laerm;57662;51.436;5.978;2023-06-05T00:29:06;35.01;33.39;37.33;;
67308;Laerm;57662;51.436;5.978;2023-06-05T00:29:17;34.88;33.57;35.97;;
67308;Laerm;57662;51.436;5.978;2023-06-05T00:29:27;34.86;33.76;36.33;;
67308;Laerm;57662;51.436;5.978;2023-06-05T00:29:38;34.84;33.49;36.20;;
67308;Laerm;57662;51.436;5.978;2023-06-05T00:29:49;35.34;33.70;36.96;;
67308;Laerm;57662;51.436;5.978;2023-06-05T00:29:59;35.63;34.34;36.84;;
67308;Laerm;57662;51.436;5.978;2023-06-05T00:30:09;35.98;34.67;37.16;;
67308;Laerm;57662;51.436;5.978;2023-06-05T00:30:20;36.44;34.86;41.83;;
67308;Laerm;57662;51.436;5.978;2023-06-05T00:30:30;37.09;35.18;42.10;;
67308;Laerm;57662;51.436;5.978;2023-06-05T00:30:40;35.75;34.34;39.44;;
67308;Laerm;57662;51.436;5.978;2023-06-05T00:30:51;34.65;33.21;35.61;;
67308;Laerm;57662;51.436;5.978;2023-06-05T00:31:01;35.28;33.72;39.30;;
67308;Laerm;57662;51.436;5.978;2023-06-05T00:31:11;40.71;33.92;50.89;;
67308;Laerm;57662;51.436;5.978;2023-06-05T00:31:23;35.45;33.91;40.59;;
67308;Laerm;57662;51.436;5.978;2023-06-05T00:31:33;34.72;33.63;35.73;;
67308;Laerm;57662;51.436;5.978;2023-06-05T00:31:44;34.93;33.39;36.02;;
67308;Laerm;57662;51.436;5.978;2023-06-05T00:31:56;35.08;34.03;36.30;;
67308;Laerm;57662;51.436;5.978;2023-06-05T00:32:06;35.73;33.90;42.63;;
67308;Laerm;57662;51.436;5.978;2023-06-05T00:32:16;35.22;34.08;37.37;;
67308;Laerm;57662;51.436;5.978;2023-06-05T00:32:26;35.03;34.02;36.35;;
67308;Laerm;57662;51.436;5.978;2023-06-05T00:32:37;34.74;33.65;36.06;;
67308;Laerm;57662;51.436;5.978;2023-06-05T00:32:47;34.89;33.71;36.00;;
67308;Laerm;57662;51.436;5.978;2023-06-05T00:32:58;35.13;33.96;36.48;;
67308;Laerm;57662;51.436;5.978;2023-06-05T00:33:08;34.74;33.40;36.13;;
67308;Laerm;57662;51.436;5.978;2023-06-05T00:33:19;34.75;33.72;36.04;;
67308;Laerm;57662;51.436;5.978;2023-06-05T00:33:29;35.19;34.14;36.73;;
67308;Laerm;57662;51.436;5.978;2023-06-05T00:33:41;36.78;33.83;50.92;;
67308;Laerm;57662;51.436;5.978;2023-06-05T00:33:52;35.11;33.71;36.93;;
67308;Laerm;57662;51.436;5.978;2023-06-05T00:34:03;35.30;34.24;36.72;;
67308;Laerm;57662;51.436;5.978;2023-06-05T00:34:13;35.22;34.17;36.26;;
67308;Laerm;57662;51.436;5.978;2023-06-05T00:34:24;35.03;33.82;37.54;;
67308;Laerm;57662;51.436;5.978;2023-06-05T00:34:34;35.47;33.99;40.37;;
67308;Laerm;57662;51.436;5.978;2023-06-05T00:34:45;35.22;34.15;36.38;;
67308;Laerm;57662;51.436;5.978;2023-06-05T00:34:56;34.84;33.70;35.88;;
67308;Laerm;57662;51.436;5.978;2023-06-05T00:35:07;34.64;33.37;35.63;;
67308;Laerm;57662;51.436;5.978;2023-06-05T00:35:17;34.71;33.16;35.99;;
67308;Laerm;57662;51.436;5.978;2023-06-05T00:35:28;34.80;33.71;35.82;;
67308;Laerm;57662;51.436;5.978;2023-06-05T00:35:38;34.83;33.68;36.05;;
67308;Laerm;57662;51.436;5.978;2023-06-05T00:35:49;34.83;33.55;36.69;;
67308;Laerm;57662;51.436;5.978;2023-06-05T00:36:00;35.37;34.23;36.86;;
67308;Laerm;57662;51.436;5.978;2023-06-05T00:36:11;35.23;34.02;36.56;;
67308;Laerm;57662;51.436;5.978;2023-06-05T00:36:21;35.28;33.97;36.51;;
67308;Laerm;57662;51.436;5.978;2023-06-05T00:36:33;35.59;34.11;37.30;;
67308;Laerm;57662;51.436;5.978;2023-06-05T00:36:44;35.90;34.71;37.65;;
67308;Laerm;57662;51.436;5.978;2023-06-05T00:36:54;35.70;34.13;37.73;;
67308;Laerm;57662;51.436;5.978;2023-06-05T00:37:05;35.75;34.06;37.07;;
67308;Laerm;57662;51.436;5.978;2023-06-05T00:37:16;35.24;33.92;36.62;;
67308;Laerm;57662;51.436;5.978;2023-06-05T00:37:27;35.22;34.20;36.79;;
67308;Laerm;57662;51.436;5.978;2023-06-05T00:37:37;35.13;33.67;36.56;;
67308;Laerm;57662;51.436;5.978;2023-06-05T00:37:48;35.19;33.70;36.33;;
67308;Laerm;57662;51.436;5.978;2023-06-05T00:37:59;35.34;34.22;36.27;;
67308;Laerm;57662;51.436;5.978;2023-06-05T00:38:10;35.36;33.92;36.62;;
67308;Laerm;57662;51.436;5.978;2023-06-05T00:38:21;35.12;33.78;36.37;;
67308;Laerm;57662;51.436;5.978;2023-06-05T00:38:32;35.23;34.03;36.35;;
67308;Laerm;57662;51.436;5.978;2023-06-05T00:38:42;35.02;33.97;36.51;;
67308;Laerm;57662;51.436;5.978;2023-06-05T00:38:53;34.88;33.90;36.04;;
67308;Laerm;57662;51.436;5.978;2023-06-05T00:39:03;35.89;33.98;41.27;;
67308;Laerm;57662;51.436;5.978;2023-06-05T00:39:14;35.37;34.05;37.02;;
67308;Laerm;57662;51.436;5.978;2023-06-05T00:39:25;35.06;33.91;37.66;;
67308;Laerm;57662;51.436;5.978;2023-06-05T00:39:35;35.21;33.76;36.55;;
67308;Laerm;57662;51.436;5.978;2023-06-05T00:39:45;35.07;33.90;36.38;;
67308;Laerm;57662;51.436;5.978;2023-06-05T00:39:56;35.03;34.02;36.88;;
67308;Laerm;57662;51.436;5.978;2023-06-05T00:40:06;34.89;33.66;36.14;;
67308;Laerm;57662;51.436;5.978;2023-06-05T00:40:16;35.34;33.60;44.32;;
67308;Laerm;57662;51.436;5.978;2023-06-05T00:40:27;34.97;33.67;36.67;;
67308;Laerm;57662;51.436;5.978;2023-06-05T00:40:37;34.80;33.23;35.99;;
67308;Laerm;57662;51.436;5.978;2023-06-05T00:40:47;34.78;33.39;35.93;;
67308;Laerm;57662;51.436;5.978;2023-06-05T00:40:58;34.53;33.09;35.61;;
67308;Laerm;57662;51.436;5.978;2023-06-05T00:41:08;34.67;33.36;35.78;;
67308;Laerm;57662;51.436;5.978;2023-06-05T00:41:18;34.71;33.57;35.99;;
67308;Laerm;57662;51.436;5.978;2023-06-05T00:41:29;34.96;33.80;36.32;;
67308;Laerm;57662;51.436;5.978;2023-06-05T00:41:40;34.83;33.71;36.09;;
67308;Laerm;57662;51.436;5.978;2023-06-05T00:41:51;42.24;33.93;49.38;;
67308;Laerm;57662;51.436;5.978;2023-06-05T00:42:02;41.48;35.13;47.97;;
67308;Laerm;57662;51.436;5.978;2023-06-05T00:42:12;35.44;33.57;38.83;;
67308;Laerm;57662;51.436;5.978;2023-06-05T00:42:22;37.18;33.78;43.23;;
67308;Laerm;57662;51.436;5.978;2023-06-05T00:42:33;35.23;33.72;36.57;;
67308;Laerm;57662;51.436;5.978;2023-06-05T00:42:44;35.42;34.07;36.92;;
67308;Laerm;57662;51.436;5.978;2023-06-05T00:42:54;35.24;34.02;36.53;;
67308;Laerm;57662;51.436;5.978;2023-06-05T00:43:04;35.06;33.95;36.37;;
67308;Laerm;57662;51.436;5.978;2023-06-05T00:43:16;35.00;33.40;37.37;;
67308;Laerm;57662;51.436;5.978;2023-06-05T00:43:26;35.14;33.91;36.41;;
67308;Laerm;57662;51.436;5.978;2023-06-05T00:43:36;35.12;34.10;36.18;;
67308;Laerm;57662;51.436;5.978;2023-06-05T00:43:47;35.12;33.60;37.39;;
67308;Laerm;57662;51.436;5.978;2023-06-05T00:44:01;35.49;34.21;36.95;;
67308;Laerm;57662;51.436;5.978;2023-06-05T00:44:11;35.51;34.04;37.14;;
67308;Laerm;57662;51.436;5.978;2023-06-05T00:44:21;35.47;33.82;36.90;;
67308;Laerm;57662;51.436;5.978;2023-06-05T00:44:32;36.01;34.57;42.96;;
67308;Laerm;57662;51.436;5.978;2023-06-05T00:44:42;35.05;33.68;36.39;;
67308;Laerm;57662;51.436;5.978;2023-06-05T00:44:53;35.47;33.93;36.85;;
67308;Laerm;57662;51.436;5.978;2023-06-05T00:45:04;36.47;35.05;38.51;;
67308;Laerm;57662;51.436;5.978;2023-06-05T00:45:15;35.87;34.73;36.86;;
67308;Laerm;57662;51.436;5.978;2023-06-05T00:45:26;35.35;33.96;36.56;;
67308;Laerm;57662;51.436;5.978;2023-06-05T00:45:36;35.43;34.20;37.35;;
67308;Laerm;57662;51.436;5.978;2023-06-05T00:45:47;35.73;34.40;36.93;;
67308;Laerm;57662;51.436;5.978;2023-06-05T00:46:00;35.68;34.35;36.76;;
67308;Laerm;57662;51.436;5.978;2023-06-05T00:46:12;35.72;34.56;41.35;;
67308;Laerm;57662;51.436;5.978;2023-06-05T00:46:23;35.34;33.93;36.66;;
67308;Laerm;57662;51.436;5.978;2023-06-05T00:46:34;34.73;33.59;35.77;;
67308;Laerm;57662;51.436;5.978;2023-06-05T00:46:44;34.81;33.51;36.06;;
67308;Laerm;57662;51.436;5.978;2023-06-05T00:46:55;34.68;33.32;35.94;;
67308;Laerm;57662;51.436;5.978;2023-06-05T00:47:05;34.92;33.68;35.92;;
67308;Laerm;57662;51.436;5.978;2023-06-05T00:47:16;34.82;33.60;35.99;;
67308;Laerm;57662;51.436;5.978;2023-06-05T00:47:26;37.99;34.46;42.54;;
67308;Laerm;57662;51.436;5.978;2023-06-05T00:47:37;39.57;36.17;42.21;;
67308;Laerm;57662;51.436;5.978;2023-06-05T00:47:47;35.78;34.36;37.73;;
67308;Laerm;57662;51.436;5.978;2023-06-05T00:47:58;35.52;34.30;36.99;;
67308;Laerm;57662;51.436;5.978;2023-06-05T00:48:08;35.79;34.44;38.12;;
67308;Laerm;57662;51.436;5.978;2023-06-05T00:48:18;34.92;33.98;36.11;;
67308;Laerm;57662;51.436;5.978;2023-06-05T00:48:29;34.76;33.66;35.68;;
67308;Laerm;57662;51.436;5.978;2023-06-05T00:48:40;34.62;33.42;35.88;;
67308;Laerm;57662;51.436;5.978;2023-06-05T00:48:50;34.82;33.18;35.81;;
67308;Laerm;57662;51.436;5.978;2023-06-05T00:49:01;34.78;33.39;36.87;;
67308;Laerm;57662;51.436;5.978;2023-06-05T00:49:11;34.86;33.72;36.14;;
67308;Laerm;57662;51.436;5.978;2023-06-05T00:49:22;34.49;33.13;36.22;;
67308;Laerm;57662;51.436;5.978;2023-06-05T00:49:36;34.70;33.10;35.81;;
67308;Laerm;57662;51.436;5.978;2023-06-05T00:49:46;34.93;33.80;36.10;;
67308;Laerm;57662;51.436;5.978;2023-06-05T00:49:57;35.02;33.88;35.91;;
67308;Laerm;57662;51.436;5.978;2023-06-05T00:50:08;34.87;33.76;36.04;;
67308;Laerm;57662;51.436;5.978;2023-06-05T00:50:21;34.74;33.54;35.67;;
67308;Laerm;57662;51.436;5.978;2023-06-05T00:50:32;34.73;33.55;35.92;;
67308;Laerm;57662;51.436;5.978;2023-06-05T00:50:43;34.46;32.85;35.87;;
67308;Laerm;57662;51.436;5.978;2023-06-05T00:50:53;34.54;33.14;36.99;;
67308;Laerm;57662;51.436;5.978;2023-06-05T00:51:04;34.84;33.36;35.87;;
67308;Laerm;57662;51.436;5.978;2023-06-05T00:51:15;35.57;33.99;37.33;;
67308;Laerm;57662;51.436;5.978;2023-06-05T00:51:26;40.40;35.42;47.36;;
67308;Laerm;57662;51.436;5.978;2023-06-05T00:51:37;45.50;42.75;54.90;;
67308;Laerm;57662;51.436;5.978;2023-06-05T00:51:48;45.36;40.96;50.10;;
67308;Laerm;57662;51.436;5.978;2023-06-05T00:51:59;47.21;41.96;51.83;;
67308;Laerm;57662;51.436;5.978;2023-06-05T00:52:09;42.88;36.05;51.86;;
67308;Laerm;57662;51.436;5.978;2023-06-05T00:52:20;40.78;36.45;45.88;;
67308;Laerm;57662;51.436;5.978;2023-06-05T00:52:30;37.21;34.52;43.98;;
67308;Laerm;57662;51.436;5.978;2023-06-05T00:52:42;35.35;33.60;41.80;;
67308;Laerm;57662;51.436;5.978;2023-06-05T00:52:53;35.10;33.64;38.15;;
67308;Laerm;57662;51.436;5.978;2023-06-05T00:53:04;34.72;33.57;36.07;;
67308;Laerm;57662;51.436;5.978;2023-06-05T00:53:16;34.82;33.62;35.95;;
67308;Laerm;57662;51.436;5.978;2023-06-05T00:53:26;35.02;33.52;36.20;;
67308;Laerm;57662;51.436;5.978;2023-06-05T00:53:37;35.09;33.59;36.74;;
67308;Laerm;57662;51.436;5.978;2023-06-05T00:53:49;35.33;33.63;36.66;;
67308;Laerm;57662;51.436;5.978;2023-06-05T00:54:00;35.59;34.37;37.17;;
67308;Laerm;57662;51.436;5.978;2023-06-05T00:54:11;35.78;34.45;37.31;;
67308;Laerm;57662;51.436;5.978;2023-06-05T00:54:21;35.47;34.13;39.96;;
67308;Laerm;57662;51.436;5.978;2023-06-05T00:54:32;35.73;33.89;38.84;;
67308;Laerm;57662;51.436;5.978;2023-06-05T00:54:43;34.79;33.50;36.14;;
67308;Laerm;57662;51.436;5.978;2023-06-05T00:54:54;34.82;33.51;35.91;;
67308;Laerm;57662;51.436;5.978;2023-06-05T00:55:05;34.80;33.66;35.85;;
67308;Laerm;57662;51.436;5.978;2023-06-05T00:55:17;34.70;33.31;36.22;;
67308;Laerm;57662;51.436;5.978;2023-06-05T00:55:28;35.10;33.89;36.43;;
67308;Laerm;57662;51.436;5.978;2023-06-05T00:55:38;35.25;33.81;38.91;;
67308;Laerm;57662;51.436;5.978;2023-06-05T00:55:49;39.71;33.91;54.58;;
67308;Laerm;57662;51.436;5.978;2023-06-05T00:55:59;44.75;35.90;54.98;;
67308;Laerm;57662;51.436;5.978;2023-06-05T00:56:11;35.78;34.07;39.85;;
67308;Laerm;57662;51.436;5.978;2023-06-05T00:56:22;35.04;33.73;36.68;;
67308;Laerm;57662;51.436;5.978;2023-06-05T00:56:32;34.99;33.75;37.98;;
67308;Laerm;57662;51.436;5.978;2023-06-05T00:56:45;34.77;33.46;36.10;;
67308;Laerm;57662;51.436;5.978;2023-06-05T00:56:56;34.75;33.48;35.82;;
67308;Laerm;57662;51.436;5.978;2023-06-05T00:57:08;34.60;33.41;35.90;;
67308;Laerm;57662;51.436;5.978;2023-06-05T00:57:18;34.95;33.78;36.41;;
67308;Laerm;57662;51.436;5.978;2023-06-05T00:57:29;35.10;33.85;36.37;;
67308;Laerm;57662;51.436;5.978;2023-06-05T00:57:40;35.17;34.00;36.22;;
67308;Laerm;57662;51.436;5.978;2023-06-05T00:57:51;35.07;34.03;36.25;;
67308;Laerm;57662;51.436;5.978;2023-06-05T00:58:01;35.41;33.68;36.63;;
67308;Laerm;57662;51.436;5.978;2023-06-05T00:58:13;34.75;33.73;35.74;;
67308;Laerm;57662;51.436;5.978;2023-06-05T00:58:25;34.71;33.40;35.96;;
67308;Laerm;57662;51.436;5.978;2023-06-05T00:58:36;34.72;33.74;36.05;;
67308;Laerm;57662;51.436;5.978;2023-06-05T00:58:47;35.02;33.91;36.37;;
67308;Laerm;57662;51.436;5.978;2023-06-05T00:58:58;35.44;34.37;36.70;;
67308;Laerm;57662;51.436;5.978;2023-06-05T00:59:09;35.54;34.22;36.70;;
67308;Laerm;57662;51.436;5.978;2023-06-05T00:59:19;35.37;33.94;36.70;;
67308;Laerm;57662;51.436;5.978;2023-06-05T00:59:30;34.81;33.59;35.99;;
67308;Laerm;57662;51.436;5.978;2023-06-05T00:59:42;34.90;33.59;36.51;;
67308;Laerm;57662;51.436;5.978;2023-06-05T00:59:54;36.39;34.75;38.83;;
67308;Laerm;57662;51.436;5.978;2023-06-05T01:00:06;44.61;37.38;54.30;;
67308;Laerm;57662;51.436;5.978;2023-06-05T01:00:18;43.85;34.03;55.50;;